sensor_id;sensor_type;location;lat;lon;timestamp;noise_LAeq;noise_LA_min;noise_LA_max;noise_LA01;noise_LA95
47109;Laerm;32856;51.422;6.794;2023-07-02T00:01:55;50.02;41.89;70.21;;
47109;Laerm;32856;51.422;6.794;2023-07-02T00:04:22;52.18;43.34;67.74;;
47109;Laerm;32856;51.422;6.794;2023-07-02T00:06:50;52.79;41.96;70.94;;
47109;Laerm;32856;51.422;6.794;2023-07-02T00:09:17;56.30;41.75;72.93;;
47109;Laerm;32856;51.422;6.794;2023-07-02T00:11:44;50.42;41.89;67.26;;
47109;Laerm;32856;51.422;6.794;2023-07-02T00:14:13;49.40;41.38;56.25;;
47109;Laerm;32856;51.422;6.794;2023-07-02T00:16:43;52.01;41.75;68.93;;
47109;Laerm;32856;51.422;6.794;2023-07-02T00:19:13;53.88;43.19;69.58;;
47109;Laerm;32856;51.422;6.794;2023-07-02T00:21:40;44.39;40.71;53.36;;
47109;Laerm;32856;51.422;6.794;2023-07-02T00:24:08;47.57;42.59;57.97;;
47109;Laerm;32856;51.422;6.794;2023-07-02T00:26:36;45.16;41.61;49.40;;
47109;Laerm;32856;51.422;6.794;2023-07-02T00:29:06;46.44;41.82;49.88;;
47109;Laerm;32856;51.422;6.794;2023-07-02T00:31:34;44.65;41.89;56.87;;
47109;Laerm;32856;51.422;6.794;2023-07-02T00:34:02;51.26;42.47;67.42;;
47109;Laerm;32856;51.422;6.794;2023-07-02T00:36:31;57.94;42.93;71.67;;
47109;Laerm;32856;51.422;6.794;2023-07-02T00:38:58;53.39;41.75;72.29;;
47109;Laerm;32856;51.422;6.794;2023-07-02T00:41:26;49.36;41.06;66.35;;
47109;Laerm;32856;51.422;6.794;2023-07-02T00:43:53;47.91;41.68;61.28;;
47109;Laerm;32856;51.422;6.794;2023-07-02T00:46:22;44.69;41.22;48.20;;
47109;Laerm;32856;51.422;6.794;2023-07-02T00:48:52;54.56;43.54;73.02;;
47109;Laerm;32856;51.422;6.794;2023-07-02T00:51:20;52.15;40.45;71.24;;
47109;Laerm;32856;51.422;6.794;2023-07-02T00:53:50;48.80;43.24;67.31;;
47109;Laerm;32856;51.422;6.794;2023-07-02T00:56:18;47.70;41.94;57.48;;
47109;Laerm;32856;51.422;6.794;2023-07-02T00:58:46;48.78;43.77;56.12;;
47109;Laerm;32856;51.422;6.794;2023-07-02T01:01:14;46.12;43.44;50.47;;
47109;Laerm;32856;51.422;6.794;2023-07-02T01:03:49;52.18;42.22;71.83;;
47109;Laerm;32856;51.422;6.794;2023-07-02T01:06:22;54.40;43.14;70.58;;
47109;Laerm;32856;51.422;6.794;2023-07-02T01:08:53;48.29;42.65;65.71;;
47109;Laerm;32856;51.422;6.794;2023-07-02T01:11:22;55.11;43.93;71.97;;
47109;Laerm;32856;51.422;6.794;2023-07-02T01:13:51;55.65;42.98;74.88;;
47109;Laerm;32856;51.422;6.794;2023-07-02T01:16:20;46.70;43.19;57.27;;
47109;Laerm;32856;51.422;6.794;2023-07-02T01:18:48;56.24;42.53;71.06;;
47109;Laerm;32856;51.422;6.794;2023-07-02T01:21:18;54.39;43.04;72.21;;
47109;Laerm;32856;51.422;6.794;2023-07-02T01:23:46;53.50;44.27;68.63;;
47109;Laerm;32856;51.422;6.794;2023-07-02T01:26:14;49.51;43.58;60.55;;
47109;Laerm;32856;51.422;6.794;2023-07-02T01:28:41;50.80;43.14;57.04;;
47109;Laerm;32856;51.422;6.794;2023-07-02T01:31:09;48.69;43.19;56.90;;
47109;Laerm;32856;51.422;6.794;2023-07-02T01:33:36;47.85;43.72;53.82;;
47109;Laerm;32856;51.422;6.794;2023-07-02T01:36:04;53.13;44.51;70.69;;
47109;Laerm;32856;51.422;6.794;2023-07-02T01:38:32;48.04;43.04;51.02;;
47109;Laerm;32856;51.422;6.794;2023-07-02T01:41:00;53.23;44.07;69.88;;
47109;Laerm;32856;51.422;6.794;2023-07-02T01:43:27;50.33;43.04;60.03;;
47109;Laerm;32856;51.422;6.794;2023-07-02T01:45:56;47.36;42.16;53.47;;
47109;Laerm;32856;51.422;6.794;2023-07-02T01:48:23;46.68;41.75;52.60;;
47109;Laerm;32856;51.422;6.794;2023-07-02T01:50:51;54.96;42.16;70.26;;
47109;Laerm;32856;51.422;6.794;2023-07-02T01:53:18;48.76;43.86;66.30;;
47109;Laerm;32856;51.422;6.794;2023-07-02T01:55:47;46.86;43.39;52.50;;
47109;Laerm;32856;51.422;6.794;2023-07-02T01:58:15;53.82;43.99;72.00;;
47109;Laerm;32856;51.422;6.794;2023-07-02T02:00:42;55.65;43.63;74.63;;
47109;Laerm;32856;51.422;6.794;2023-07-02T02:03:10;53.08;43.99;71.27;;
47109;Laerm;32856;51.422;6.794;2023-07-02T02:05:37;54.86;43.58;71.54;;
47109;Laerm;32856;51.422;6.794;2023-07-02T02:08:04;45.49;42.59;49.00;;
47109;Laerm;32856;51.422;6.794;2023-07-02T02:10:32;48.12;42.22;54.79;;
47109;Laerm;32856;51.422;6.794;2023-07-02T02:13:00;45.12;41.38;49.50;;
47109;Laerm;32856;51.422;6.794;2023-07-02T02:15:28;50.89;41.75;68.52;;
47109;Laerm;32856;51.422;6.794;2023-07-02T02:17:55;45.43;43.00;49.08;;
47109;Laerm;32856;51.422;6.794;2023-07-02T02:20:23;55.97;42.47;71.80;;
47109;Laerm;32856;51.422;6.794;2023-07-02T02:22:51;45.13;42.09;50.47;;
47109;Laerm;32856;51.422;6.794;2023-07-02T02:25:18;57.75;41.82;75.11;;
47109;Laerm;32856;51.422;6.794;2023-07-02T02:27:45;47.48;43.04;56.53;;
47109;Laerm;32856;51.422;6.794;2023-07-02T02:30:14;54.52;42.59;64.64;;
47109;Laerm;32856;51.422;6.794;2023-07-02T02:32:41;45.90;42.22;55.11;;
47109;Laerm;32856;51.422;6.794;2023-07-02T02:35:09;46.66;41.82;54.04;;
47109;Laerm;32856;51.422;6.794;2023-07-02T02:37:37;46.83;42.22;53.53;;
47109;Laerm;32856;51.422;6.794;2023-07-02T02:40:05;46.98;42.53;62.28;;
47109;Laerm;32856;51.422;6.794;2023-07-02T02:42:33;53.33;42.22;68.10;;
47109;Laerm;32856;51.422;6.794;2023-07-02T02:45:00;54.94;44.31;69.22;;
47109;Laerm;32856;51.422;6.794;2023-07-02T02:47:29;51.77;43.24;67.45;;
47109;Laerm;32856;51.422;6.794;2023-07-02T02:49:56;48.07;42.82;55.25;;
47109;Laerm;32856;51.422;6.794;2023-07-02T02:52:23;50.11;42.29;64.93;;
47109;Laerm;32856;51.422;6.794;2023-07-02T02:54:51;49.05;42.35;66.32;;
47109;Laerm;32856;51.422;6.794;2023-07-02T02:57:19;47.48;43.72;54.51;;
47109;Laerm;32856;51.422;6.794;2023-07-02T02:59:47;53.24;43.24;70.14;;
47109;Laerm;32856;51.422;6.794;2023-07-02T03:02:16;46.59;43.76;58.84;;
47109;Laerm;32856;51.422;6.794;2023-07-02T03:04:45;47.70;42.53;59.98;;
47109;Laerm;32856;51.422;6.794;2023-07-02T03:07:15;47.90;43.63;60.52;;
47109;Laerm;32856;51.422;6.794;2023-07-02T03:09:42;54.08;44.19;71.86;;
47109;Laerm;32856;51.422;6.794;2023-07-02T03:12:10;55.38;42.98;71.93;;
47109;Laerm;32856;51.422;6.794;2023-07-02T03:14:37;56.33;44.15;72.68;;
47109;Laerm;32856;51.422;6.794;2023-07-02T03:17:05;46.74;42.88;54.78;;
47109;Laerm;32856;51.422;6.794;2023-07-02T03:19:32;55.05;43.14;73.18;;
47109;Laerm;32856;51.422;6.794;2023-07-02T03:22:01;56.10;43.58;75.75;;
47109;Laerm;32856;51.422;6.794;2023-07-02T03:24:28;45.26;42.88;47.42;;
47109;Laerm;32856;51.422;6.794;2023-07-02T03:26:55;45.41;42.16;48.67;;
47109;Laerm;32856;51.422;6.794;2023-07-02T03:29:23;45.42;42.71;49.54;;
47109;Laerm;32856;51.422;6.794;2023-07-02T03:31:50;51.36;43.72;68.64;;
47109;Laerm;32856;51.422;6.794;2023-07-02T03:34:17;46.77;43.86;50.42;;
47109;Laerm;32856;51.422;6.794;2023-07-02T03:36:45;45.57;41.68;50.03;;
47109;Laerm;32856;51.422;6.794;2023-07-02T03:39:13;46.72;42.03;53.63;;
47109;Laerm;32856;51.422;6.794;2023-07-02T03:41:41;54.81;41.82;72.15;;
47109;Laerm;32856;51.422;6.794;2023-07-02T03:44:08;46.89;42.53;53.98;;
47109;Laerm;32856;51.422;6.794;2023-07-02T03:46:36;47.51;43.29;56.02;;
47109;Laerm;32856;51.422;6.794;2023-07-02T03:49:03;55.52;44.19;71.53;;
47109;Laerm;32856;51.422;6.794;2023-07-02T03:51:31;55.33;44.07;73.82;;
47109;Laerm;32856;51.422;6.794;2023-07-02T03:53:58;51.78;43.19;67.62;;
47109;Laerm;32856;51.422;6.794;2023-07-02T03:56:27;54.16;42.53;71.95;;
47109;Laerm;32856;51.422;6.794;2023-07-02T03:58:54;46.63;41.53;59.22;;
47109;Laerm;32856;51.422;6.794;2023-07-02T04:01:21;52.44;43.34;69.01;;
47109;Laerm;32856;51.422;6.794;2023-07-02T04:03:49;53.22;42.29;71.86;;
47109;Laerm;32856;51.422;6.794;2023-07-02T04:06:17;46.68;43.58;50.65;;
47109;Laerm;32856;51.422;6.794;2023-07-02T04:08:44;46.29;42.82;50.27;;
47109;Laerm;32856;51.422;6.794;2023-07-02T04:11:12;53.86;41.61;72.59;;
47109;Laerm;32856;51.422;6.794;2023-07-02T04:13:41;46.05;43.04;64.42;;
47109;Laerm;32856;51.422;6.794;2023-07-02T04:16:08;46.20;42.71;50.60;;
47109;Laerm;32856;51.422;6.794;2023-07-02T04:18:36;57.38;44.11;73.05;;
47109;Laerm;32856;51.422;6.794;2023-07-02T04:21:03;48.96;42.93;54.32;;
47109;Laerm;32856;51.422;6.794;2023-07-02T04:23:30;51.75;43.34;68.80;;
47109;Laerm;32856;51.422;6.794;2023-07-02T04:25:58;46.20;42.98;56.27;;
47109;Laerm;32856;51.422;6.794;2023-07-02T04:28:41;52.31;42.47;71.25;;
47109;Laerm;32856;51.422;6.794;2023-07-02T04:31:08;48.94;42.88;57.89;;
47109;Laerm;32856;51.422;6.794;2023-07-02T04:33:35;58.84;43.24;76.76;;
47109;Laerm;32856;51.422;6.794;2023-07-02T04:36:03;45.30;42.03;52.22;;
47109;Laerm;32856;51.422;6.794;2023-07-02T04:38:30;46.18;43.58;54.04;;
47109;Laerm;32856;51.422;6.794;2023-07-02T04:40:58;52.61;42.93;71.87;;
47109;Laerm;32856;51.422;6.794;2023-07-02T04:43:27;45.57;42.88;48.46;;
47109;Laerm;32856;51.422;6.794;2023-07-02T04:45:56;45.39;41.88;48.45;;
47109;Laerm;32856;51.422;6.794;2023-07-02T04:48:24;44.88;41.30;48.64;;
47109;Laerm;32856;51.422;6.794;2023-07-02T04:50:51;47.02;41.96;55.51;;
47109;Laerm;32856;51.422;6.794;2023-07-02T04:53:19;51.72;42.93;71.16;;
47109;Laerm;32856;51.422;6.794;2023-07-02T04:55:46;45.74;42.53;56.83;;
47109;Laerm;32856;51.422;6.794;2023-07-02T04:58:13;52.12;42.22;70.01;;
47109;Laerm;32856;51.422;6.794;2023-07-02T05:00:41;47.76;42.53;64.43;;
47109;Laerm;32856;51.422;6.794;2023-07-02T05:03:10;51.97;43.68;69.01;;
47109;Laerm;32856;51.422;6.794;2023-07-02T05:05:37;49.43;43.49;63.74;;
47109;Laerm;32856;51.422;6.794;2023-07-02T05:08:05;46.92;42.82;61.26;;
47109;Laerm;32856;51.422;6.794;2023-07-02T05:10:32;53.65;42.59;71.05;;
47109;Laerm;32856;51.422;6.794;2023-07-02T05:13:00;53.71;43.99;71.33;;
47109;Laerm;32856;51.422;6.794;2023-07-02T05:15:27;49.38;43.68;62.23;;
47109;Laerm;32856;51.422;6.794;2023-07-02T05:17:54;52.95;44.23;67.74;;
47109;Laerm;32856;51.422;6.794;2023-07-02T05:20:23;50.72;44.07;67.81;;
47109;Laerm;32856;51.422;6.794;2023-07-02T05:22:50;51.35;43.77;69.00;;
47109;Laerm;32856;51.422;6.794;2023-07-02T05:25:18;57.01;43.77;74.27;;
47109;Laerm;32856;51.422;6.794;2023-07-02T05:27:45;56.24;43.58;72.49;;
47109;Laerm;32856;51.422;6.794;2023-07-02T05:30:14;53.99;44.27;71.44;;
47109;Laerm;32856;51.422;6.794;2023-07-02T05:32:42;46.80;43.99;56.72;;
47109;Laerm;32856;51.422;6.794;2023-07-02T05:35:09;47.02;44.03;56.46;;
47109;Laerm;32856;51.422;6.794;2023-07-02T05:37:38;54.08;44.23;71.32;;
47109;Laerm;32856;51.422;6.794;2023-07-02T05:40:07;57.20;45.07;73.06;;
47109;Laerm;32856;51.422;6.794;2023-07-02T05:42:34;57.20;44.51;76.13;;
47109;Laerm;32856;51.422;6.794;2023-07-02T05:45:02;55.81;43.24;72.73;;
47109;Laerm;32856;51.422;6.794;2023-07-02T05:47:30;54.25;43.58;72.55;;
47109;Laerm;32856;51.422;6.794;2023-07-02T05:49:57;55.39;42.59;71.53;;
47109;Laerm;32856;51.422;6.794;2023-07-02T05:52:25;53.83;43.24;70.41;;
47109;Laerm;32856;51.422;6.794;2023-07-02T05:54:53;51.91;44.87;71.78;;
47109;Laerm;32856;51.422;6.794;2023-07-02T05:57:21;55.00;44.43;70.38;;
47109;Laerm;32856;51.422;6.794;2023-07-02T05:59:48;52.37;45.07;67.87;;
47109;Laerm;32856;51.422;6.794;2023-07-02T06:02:15;52.74;44.07;69.51;;
47109;Laerm;32856;51.422;6.794;2023-07-02T06:04:43;56.49;46.15;69.37;;
47109;Laerm;32856;51.422;6.794;2023-07-02T06:07:10;51.40;45.01;65.72;;
47109;Laerm;32856;51.422;6.794;2023-07-02T06:09:37;60.54;46.95;74.17;;
47109;Laerm;32856;51.422;6.794;2023-07-02T06:12:06;54.48;44.73;69.58;;
47109;Laerm;32856;51.422;6.794;2023-07-02T06:14:34;58.59;44.27;74.01;;
47109;Laerm;32856;51.422;6.794;2023-07-02T06:17:01;53.29;44.80;70.66;;
47109;Laerm;32856;51.422;6.794;2023-07-02T06:19:31;53.30;44.97;70.65;;
47109;Laerm;32856;51.422;6.794;2023-07-02T06:21:59;55.99;44.11;76.05;;
47109;Laerm;32856;51.422;6.794;2023-07-02T06:24:26;61.26;44.83;77.61;;
47109;Laerm;32856;51.422;6.794;2023-07-02T06:26:54;58.25;46.35;74.66;;
47109;Laerm;32856;51.422;6.794;2023-07-02T06:29:22;54.65;46.38;69.10;;
47109;Laerm;32856;51.422;6.794;2023-07-02T06:31:50;58.04;44.65;74.39;;
47109;Laerm;32856;51.422;6.794;2023-07-02T06:34:18;62.15;45.33;83.20;;
47109;Laerm;32856;51.422;6.794;2023-07-02T06:36:45;56.56;45.39;72.47;;
47109;Laerm;32856;51.422;6.794;2023-07-02T06:39:12;59.22;45.91;79.90;;
47109;Laerm;32856;51.422;6.794;2023-07-02T06:41:40;55.03;45.45;73.62;;
47109;Laerm;32856;51.422;6.794;2023-07-02T06:44:07;51.70;46.07;66.75;;
47109;Laerm;32856;51.422;6.794;2023-07-02T06:46:36;49.90;46.69;55.31;;
47109;Laerm;32856;51.422;6.794;2023-07-02T06:49:03;56.37;47.86;71.74;;
47109;Laerm;32856;51.422;6.794;2023-07-02T06:51:31;57.28;46.23;71.56;;
47109;Laerm;32856;51.422;6.794;2023-07-02T06:53:59;59.91;46.25;75.47;;
47109;Laerm;32856;51.422;6.794;2023-07-02T06:56:26;60.13;45.80;78.87;;
47109;Laerm;32856;51.422;6.794;2023-07-02T06:58:54;61.77;47.08;77.36;;
47109;Laerm;32856;51.422;6.794;2023-07-02T07:01:22;57.24;46.05;74.49;;
47109;Laerm;32856;51.422;6.794;2023-07-02T07:03:51;57.39;46.73;72.22;;
47109;Laerm;32856;51.422;6.794;2023-07-02T07:06:18;58.76;47.81;77.63;;
47109;Laerm;32856;51.422;6.794;2023-07-02T07:08:46;60.54;48.20;74.72;;
47109;Laerm;32856;51.422;6.794;2023-07-02T07:11:13;57.51;47.04;71.82;;
47109;Laerm;32856;51.422;6.794;2023-07-02T07:13:41;60.21;46.73;73.46;;
47109;Laerm;32856;51.422;6.794;2023-07-02T07:16:09;57.44;47.04;71.65;;
47109;Laerm;32856;51.422;6.794;2023-07-02T07:18:37;61.41;46.57;75.28;;
47109;Laerm;32856;51.422;6.794;2023-07-02T07:21:06;57.52;46.59;72.04;;
47109;Laerm;32856;51.422;6.794;2023-07-02T07:23:33;58.47;46.02;71.63;;
47109;Laerm;32856;51.422;6.794;2023-07-02T07:26:00;59.87;46.25;77.65;;
47109;Laerm;32856;51.422;6.794;2023-07-02T07:28:28;59.81;46.02;77.31;;
47109;Laerm;32856;51.422;6.794;2023-07-02T07:30:55;56.31;46.25;71.63;;
47109;Laerm;32856;51.422;6.794;2023-07-02T07:33:22;61.19;48.78;73.56;;
47109;Laerm;32856;51.422;6.794;2023-07-02T07:35:50;63.04;48.66;81.09;;
47109;Laerm;32856;51.422;6.794;2023-07-02T07:38:19;59.80;49.02;73.86;;
47109;Laerm;32856;51.422;6.794;2023-07-02T07:40:46;59.59;46.91;73.96;;
47109;Laerm;32856;51.422;6.794;2023-07-02T07:43:14;60.18;47.52;73.15;;
47109;Laerm;32856;51.422;6.794;2023-07-02T07:45:41;60.25;49.55;74.17;;
47109;Laerm;32856;51.422;6.794;2023-07-02T07:48:09;61.07;48.29;72.46;;
47109;Laerm;32856;51.422;6.794;2023-07-02T07:50:36;62.04;48.18;77.45;;
47109;Laerm;32856;51.422;6.794;2023-07-02T07:53:04;60.10;49.07;73.16;;
47109;Laerm;32856;51.422;6.794;2023-07-02T07:55:32;58.04;49.12;72.90;;
47109;Laerm;32856;51.422;6.794;2023-07-02T07:58:00;60.58;47.81;78.41;;
47109;Laerm;32856;51.422;6.794;2023-07-02T08:00:27;62.31;46.52;77.67;;
47109;Laerm;32856;51.422;6.794;2023-07-02T08:02:54;57.91;47.61;70.21;;
47109;Laerm;32856;51.422;6.794;2023-07-02T08:05:22;58.83;45.51;71.52;;
47109;Laerm;32856;51.422;6.794;2023-07-02T08:07:50;65.51;47.08;82.90;;
47109;Laerm;32856;51.422;6.794;2023-07-02T08:10:19;57.52;47.42;72.85;;
47109;Laerm;32856;51.422;6.794;2023-07-02T08:12:48;61.53;47.63;74.22;;
47109;Laerm;32856;51.422;6.794;2023-07-02T08:15:16;56.78;47.30;69.57;;
47109;Laerm;32856;51.422;6.794;2023-07-02T08:17:43;59.56;48.54;75.71;;
47109;Laerm;32856;51.422;6.794;2023-07-02T08:20:11;58.41;48.00;70.77;;
47109;Laerm;32856;51.422;6.794;2023-07-02T08:22:38;61.54;48.00;75.08;;
47109;Laerm;32856;51.422;6.794;2023-07-02T08:25:06;57.53;46.77;70.68;;
47109;Laerm;32856;51.422;6.794;2023-07-02T08:27:34;62.77;49.41;80.60;;
47109;Laerm;32856;51.422;6.794;2023-07-02T08:30:03;65.77;48.31;81.42;;
47109;Laerm;32856;51.422;6.794;2023-07-02T08:32:31;60.45;46.89;72.29;;
47109;Laerm;32856;51.422;6.794;2023-07-02T08:34:59;57.51;44.94;71.40;;
47109;Laerm;32856;51.422;6.794;2023-07-02T08:37:27;62.02;48.73;74.64;;
47109;Laerm;32856;51.422;6.794;2023-07-02T08:39:54;62.26;47.32;77.94;;
47109;Laerm;32856;51.422;6.794;2023-07-02T08:42:22;57.86;46.82;71.51;;
47109;Laerm;32856;51.422;6.794;2023-07-02T08:44:53;61.56;48.91;72.84;;
47109;Laerm;32856;51.422;6.794;2023-07-02T08:47:22;63.99;48.91;77.22;;
47109;Laerm;32856;51.422;6.794;2023-07-02T08:49:50;59.38;45.72;79.05;;
47109;Laerm;32856;51.422;6.794;2023-07-02T08:52:17;61.72;48.54;72.04;;
47109;Laerm;32856;51.422;6.794;2023-07-02T08:54:45;62.22;45.80;74.08;;
47109;Laerm;32856;51.422;6.794;2023-07-02T08:57:13;66.04;46.23;81.64;;
47109;Laerm;32856;51.422;6.794;2023-07-02T08:59:40;59.49;46.52;72.45;;
47109;Laerm;32856;51.422;6.794;2023-07-02T09:02:08;62.88;47.28;75.42;;
47109;Laerm;32856;51.422;6.794;2023-07-02T09:04:36;60.97;46.57;72.54;;
47109;Laerm;32856;51.422;6.794;2023-07-02T09:07:04;61.47;48.05;74.77;;
47109;Laerm;32856;51.422;6.794;2023-07-02T09:09:32;61.93;47.18;75.25;;
47109;Laerm;32856;51.422;6.794;2023-07-02T09:11:59;61.29;47.90;79.36;;
47109;Laerm;32856;51.422;6.794;2023-07-02T09:14:27;61.66;48.21;72.65;;
47109;Laerm;32856;51.422;6.794;2023-07-02T09:17:04;61.95;49.69;74.27;;
47109;Laerm;32856;51.422;6.794;2023-07-02T09:19:32;62.75;51.09;76.41;;
47109;Laerm;32856;51.422;6.794;2023-07-02T09:22:01;63.09;48.58;73.31;;
47109;Laerm;32856;51.422;6.794;2023-07-02T09:24:30;62.37;49.72;73.15;;
47109;Laerm;32856;51.422;6.794;2023-07-02T09:26:58;63.20;47.79;77.09;;
47109;Laerm;32856;51.422;6.794;2023-07-02T09:29:27;63.35;48.02;83.34;;
47109;Laerm;32856;51.422;6.794;2023-07-02T09:31:55;64.12;52.85;73.98;;
47109;Laerm;32856;51.422;6.794;2023-07-02T09:34:26;63.68;49.06;80.70;;
47109;Laerm;32856;51.422;6.794;2023-07-02T09:36:54;62.85;49.12;74.23;;
47109;Laerm;32856;51.422;6.794;2023-07-02T09:39:26;62.55;47.72;81.58;;
47109;Laerm;32856;51.422;6.794;2023-07-02T09:41:54;60.08;46.82;76.05;;
47109;Laerm;32856;51.422;6.794;2023-07-02T09:44:24;61.42;50.04;69.90;;
47109;Laerm;32856;51.422;6.794;2023-07-02T09:46:54;61.24;48.26;76.85;;
47109;Laerm;32856;51.422;6.794;2023-07-02T09:49:23;61.58;46.97;73.10;;
47109;Laerm;32856;51.422;6.794;2023-07-02T09:51:51;62.01;46.20;74.28;;
47109;Laerm;32856;51.422;6.794;2023-07-02T09:54:19;61.26;46.33;73.23;;
47109;Laerm;32856;51.422;6.794;2023-07-02T09:56:48;64.23;47.08;86.76;;
47109;Laerm;32856;51.422;6.794;2023-07-02T09:59:16;62.70;49.08;74.87;;
47109;Laerm;32856;51.422;6.794;2023-07-02T10:01:43;67.00;50.39;81.89;;
47109;Laerm;32856;51.422;6.794;2023-07-02T10:04:11;67.48;47.93;93.18;;
47109;Laerm;32856;51.422;6.794;2023-07-02T10:06:46;63.37;48.00;81.65;;
47109;Laerm;32856;51.422;6.794;2023-07-02T10:09:13;62.62;49.77;73.62;;
47109;Laerm;32856;51.422;6.794;2023-07-02T10:11:40;61.39;49.33;72.61;;
47109;Laerm;32856;51.422;6.794;2023-07-02T10:14:09;61.36;48.34;77.02;;
47109;Laerm;32856;51.422;6.794;2023-07-02T10:16:50;62.75;48.15;75.31;;
47109;Laerm;32856;51.422;6.794;2023-07-02T10:19:17;61.02;49.45;76.06;;
47109;Laerm;32856;51.422;6.794;2023-07-02T10:21:45;62.06;49.53;73.82;;
47109;Laerm;32856;51.422;6.794;2023-07-02T10:24:13;62.47;51.95;77.96;;
47109;Laerm;32856;51.422;6.794;2023-07-02T10:26:54;64.66;49.11;79.63;;
47109;Laerm;32856;51.422;6.794;2023-07-02T10:29:23;63.27;46.48;77.49;;
47109;Laerm;32856;51.422;6.794;2023-07-02T10:31:52;63.15;49.43;74.85;;
47109;Laerm;32856;51.422;6.794;2023-07-02T10:34:29;61.33;49.55;74.51;;
47109;Laerm;32856;51.422;6.794;2023-07-02T10:36:57;62.98;46.78;78.69;;
47109;Laerm;32856;51.422;6.794;2023-07-02T10:39:25;62.65;48.31;77.69;;
47109;Laerm;32856;51.422;6.794;2023-07-02T10:41:53;62.43;48.52;77.89;;
47109;Laerm;32856;51.422;6.794;2023-07-02T10:44:20;62.58;52.25;74.20;;
47109;Laerm;32856;51.422;6.794;2023-07-02T10:46:49;63.83;47.82;74.11;;
47109;Laerm;32856;51.422;6.794;2023-07-02T10:49:17;61.17;48.91;73.38;;
47109;Laerm;32856;51.422;6.794;2023-07-02T10:51:45;61.78;48.76;74.26;;
47109;Laerm;32856;51.422;6.794;2023-07-02T10:54:23;62.22;46.40;77.03;;
47109;Laerm;32856;51.422;6.794;2023-07-02T10:56:50;65.89;45.86;81.11;;
47109;Laerm;32856;51.422;6.794;2023-07-02T10:59:23;60.79;46.57;72.44;;
47109;Laerm;32856;51.422;6.794;2023-07-02T11:01:52;58.79;48.21;73.61;;
47109;Laerm;32856;51.422;6.794;2023-07-02T11:04:21;62.23;48.91;74.59;;
47109;Laerm;32856;51.422;6.794;2023-07-02T11:06:49;62.31;48.94;71.25;;
47109;Laerm;32856;51.422;6.794;2023-07-02T11:09:17;63.59;47.28;75.34;;
47109;Laerm;32856;51.422;6.794;2023-07-02T11:11:50;62.08;47.34;73.57;;
47109;Laerm;32856;51.422;6.794;2023-07-02T11:14:26;67.93;47.96;88.63;;
47109;Laerm;32856;51.422;6.794;2023-07-02T11:16:55;61.14;47.36;75.13;;
47109;Laerm;32856;51.422;6.794;2023-07-02T11:19:22;63.03;49.46;74.74;;
47109;Laerm;32856;51.422;6.794;2023-07-02T11:21:50;64.78;51.12;86.39;;
47109;Laerm;32856;51.422;6.794;2023-07-02T11:24:25;63.24;51.89;74.04;;
47109;Laerm;32856;51.422;6.794;2023-07-02T11:26:53;63.57;48.66;82.38;;
47109;Laerm;32856;51.422;6.794;2023-07-02T11:29:21;61.71;47.50;72.48;;
47109;Laerm;32856;51.422;6.794;2023-07-02T11:31:48;62.68;51.20;74.03;;
47109;Laerm;32856;51.422;6.794;2023-07-02T11:34:17;62.48;49.80;75.62;;
47109;Laerm;32856;51.422;6.794;2023-07-02T11:36:47;63.68;45.94;77.69;;
47109;Laerm;32856;51.422;6.794;2023-07-02T11:39:15;63.64;47.02;73.72;;
47109;Laerm;32856;51.422;6.794;2023-07-02T11:41:43;60.87;51.21;73.64;;
47109;Laerm;32856;51.422;6.794;2023-07-02T11:44:11;63.04;49.27;72.66;;
47109;Laerm;32856;51.422;6.794;2023-07-02T11:46:39;62.20;48.84;74.64;;
47109;Laerm;32856;51.422;6.794;2023-07-02T11:49:06;65.74;47.16;86.07;;
47109;Laerm;32856;51.422;6.794;2023-07-02T11:51:36;59.20;47.06;74.14;;
47109;Laerm;32856;51.422;6.794;2023-07-02T11:54:04;61.56;49.60;75.77;;
47109;Laerm;32856;51.422;6.794;2023-07-02T11:56:31;65.88;51.79;77.69;;
47109;Laerm;32856;51.422;6.794;2023-07-02T11:58:59;63.36;51.63;74.78;;
47109;Laerm;32856;51.422;6.794;2023-07-02T12:01:29;62.09;46.80;73.77;;
47109;Laerm;32856;51.422;6.794;2023-07-02T12:03:57;62.58;48.90;75.00;;
47109;Laerm;32856;51.422;6.794;2023-07-02T12:06:24;61.94;46.02;73.25;;
47109;Laerm;32856;51.422;6.794;2023-07-02T12:08:53;62.97;51.12;76.53;;
47109;Laerm;32856;51.422;6.794;2023-07-02T12:11:20;64.66;51.09;79.19;;
47109;Laerm;32856;51.422;6.794;2023-07-02T12:13:47;61.42;47.96;74.06;;
47109;Laerm;32856;51.422;6.794;2023-07-02T12:16:15;62.34;48.63;74.10;;
47109;Laerm;32856;51.422;6.794;2023-07-02T12:18:42;64.05;51.10;79.33;;
47109;Laerm;32856;51.422;6.794;2023-07-02T12:21:10;64.36;46.89;74.48;;
47109;Laerm;32856;51.422;6.794;2023-07-02T12:23:37;64.16;50.48;78.86;;
47109;Laerm;32856;51.422;6.794;2023-07-02T12:26:06;65.21;49.67;78.17;;
47109;Laerm;32856;51.422;6.794;2023-07-02T12:28:33;58.50;47.10;72.52;;
47109;Laerm;32856;51.422;6.794;2023-07-02T12:31:00;62.86;49.99;74.95;;
47109;Laerm;32856;51.422;6.794;2023-07-02T12:33:28;63.54;48.61;74.55;;
47109;Laerm;32856;51.422;6.794;2023-07-02T12:35:56;62.92;49.79;73.72;;
47109;Laerm;32856;51.422;6.794;2023-07-02T12:38:23;63.63;49.25;74.43;;
47109;Laerm;32856;51.422;6.794;2023-07-02T12:40:51;63.48;47.26;75.42;;
47109;Laerm;32856;51.422;6.794;2023-07-02T12:43:19;63.66;49.62;74.43;;
47109;Laerm;32856;51.422;6.794;2023-07-02T12:45:47;64.01;51.35;74.09;;
47109;Laerm;32856;51.422;6.794;2023-07-02T12:48:15;64.35;48.18;75.58;;
47109;Laerm;32856;51.422;6.794;2023-07-02T12:50:52;64.10;50.28;74.47;;
47109;Laerm;32856;51.422;6.794;2023-07-02T12:53:19;63.66;47.63;78.35;;
47109;Laerm;32856;51.422;6.794;2023-07-02T12:55:47;64.30;49.66;75.65;;
47109;Laerm;32856;51.422;6.794;2023-07-02T12:58:14;63.88;48.12;76.66;;
47109;Laerm;32856;51.422;6.794;2023-07-02T13:00:43;63.36;47.24;73.65;;
47109;Laerm;32856;51.422;6.794;2023-07-02T13:03:11;63.67;49.04;74.29;;
47109;Laerm;32856;51.422;6.794;2023-07-02T13:05:38;62.64;50.98;73.48;;
47109;Laerm;32856;51.422;6.794;2023-07-02T13:08:06;63.31;50.18;74.70;;
47109;Laerm;32856;51.422;6.794;2023-07-02T13:10:33;62.91;46.35;76.74;;
47109;Laerm;32856;51.422;6.794;2023-07-02T13:13:02;64.54;47.52;75.49;;
47109;Laerm;32856;51.422;6.794;2023-07-02T13:15:44;61.20;47.36;76.40;;
47109;Laerm;32856;51.422;6.794;2023-07-02T13:18:12;64.23;51.44;77.59;;
47109;Laerm;32856;51.422;6.794;2023-07-02T13:20:39;63.02;47.76;74.11;;
47109;Laerm;32856;51.422;6.794;2023-07-02T13:23:06;62.78;46.66;82.12;;
47109;Laerm;32856;51.422;6.794;2023-07-02T13:25:34;63.12;46.57;77.52;;
47109;Laerm;32856;51.422;6.794;2023-07-02T13:28:02;63.73;48.60;76.91;;
47109;Laerm;32856;51.422;6.794;2023-07-02T13:30:29;60.23;47.44;77.45;;
47109;Laerm;32856;51.422;6.794;2023-07-02T13:32:58;60.10;49.28;73.02;;
47109;Laerm;32856;51.422;6.794;2023-07-02T13:35:26;62.02;50.14;75.27;;
47109;Laerm;32856;51.422;6.794;2023-07-02T13:37:53;63.21;48.20;73.96;;
47109;Laerm;32856;51.422;6.794;2023-07-02T13:40:21;61.85;47.05;76.15;;
47109;Laerm;32856;51.422;6.794;2023-07-02T13:42:48;61.12;47.28;77.00;;
47109;Laerm;32856;51.422;6.794;2023-07-02T13:45:16;63.81;48.23;75.11;;
47109;Laerm;32856;51.422;6.794;2023-07-02T13:47:43;61.87;48.58;73.57;;
47109;Laerm;32856;51.422;6.794;2023-07-02T13:50:12;64.41;48.36;76.40;;